Time;durP1;ratioP1;P1;durP2;ratioP2;P2;SDS_P1;SDS_P2;PMS_P1;PMS_P2;Temp;Humidity;BMP_temperature;BMP_pressure;BME280_temperature;BME280_humidity;BME280_pressure;Samples;Min_cycle;Max_cycle;Signal;HPM_P1;HPM_P2
2022/03/11 00:00:09;;;;;;;10.07;6.30;;;;;;;3.85;55.12;96798.53;5062845;28;20203;-54
2022/03/11 00:02:36;;;;;;;8.20;6.77;;;;;;;3.79;55.14;96799.75;5042483;28;20238;-53
2022/03/11 00:05:04;;;;;;;7.23;6.50;;;;;;;3.79;55.27;96798.94;5044340;28;20222;-54
2022/03/11 00:07:31;;;;;;;7.87;7.07;;;;;;;3.78;55.34;96798.09;5043520;28;20238;-54
2022/03/11 00:09:58;;;;;;;8.17;6.83;;;;;;;3.74;55.61;96794.00;5043161;28;20290;-55
2022/03/11 00:12:27;;;;;;;7.40;6.70;;;;;;;3.72;55.40;96797.66;5043763;28;20200;-53
2022/03/11 00:14:56;;;;;;;9.60;6.70;;;;;;;3.67;55.77;96794.47;5041163;28;20311;-54
2022/03/11 00:17:24;;;;;;;7.63;6.83;;;;;;;3.65;56.07;96791.13;5044978;28;20216;-53
2022/03/11 00:19:51;;;;;;;8.30;6.70;;;;;;;3.57;56.27;96789.00;5051102;28;20273;-55
2022/03/11 00:22:18;;;;;;;8.63;6.70;;;;;;;3.57;56.27;96791.63;5056173;28;20278;-54
2022/03/11 00:24:44;;;;;;;11.97;6.93;;;;;;;3.53;56.69;96802.34;5061568;28;20199;-53
2022/03/11 00:27:11;;;;;;;9.10;7.40;;;;;;;3.52;56.88;96798.91;5069144;28;20199;-55
2022/03/11 00:29:38;;;;;;;11.37;8.60;;;;;;;3.53;56.73;96795.34;5052407;28;20207;-54
2022/03/11 00:32:04;;;;;;;13.40;7.80;;;;;;;3.52;56.04;96788.44;5048554;28;20573;-52
2022/03/11 00:34:33;;;;;;;7.97;6.73;;;;;;;3.54;55.85;96789.19;5044021;28;20202;-53
2022/03/11 00:37:00;;;;;;;7.20;6.50;;;;;;;3.49;55.99;96788.63;5045482;28;20200;-55
2022/03/11 00:39:27;;;;;;;7.43;6.57;;;;;;;3.47;55.74;96787.91;5050123;28;20260;-57
2022/03/11 00:41:55;;;;;;;7.73;6.93;;;;;;;3.46;55.84;96792.28;5048058;28;20203;-54
2022/03/11 00:44:22;;;;;;;7.77;6.30;;;;;;;3.42;55.69;96795.19;5047561;28;20229;-55
2022/03/11 00:46:48;;;;;;;9.17;7.00;;;;;;;3.38;55.83;96789.31;5051121;28;20222;-55
2022/03/11 00:49:15;;;;;;;7.77;6.40;;;;;;;3.37;56.36;96785.00;5052244;28;20210;-54
2022/03/11 00:51:43;;;;;;;10.23;6.90;;;;;;;3.42;55.76;96789.97;5042259;28;20215;-53
2022/03/11 00:54:10;;;;;;;7.67;6.87;;;;;;;3.34;55.94;96786.97;5041398;28;20198;-52
2022/03/11 00:56:37;;;;;;;7.10;6.30;;;;;;;3.33;55.69;96790.53;5046429;28;20217;-53
2022/03/11 00:59:04;;;;;;;7.40;6.70;;;;;;;3.31;55.41;96793.25;5057672;28;20238;-53
2022/03/11 01:01:31;;;;;;;8.03;6.90;;;;;;;3.22;56.28;96785.13;5061226;28;20204;-54
2022/03/11 01:03:58;;;;;;;7.83;6.97;;;;;;;3.19;56.21;96782.72;5046437;28;20227;-55
2022/03/11 01:06:24;;;;;;;8.13;6.47;;;;;;;3.19;55.81;96783.53;5043228;28;20211;-53
2022/03/11 01:08:52;;;;;;;7.80;6.63;;;;;;;3.19;55.61;96782.72;5042861;28;20215;-54
2022/03/11 01:11:19;;;;;;;7.47;6.67;;;;;;;3.18;55.40;96781.03;5043168;28;20214;-54
2022/03/11 01:13:45;;;;;;;8.73;6.97;;;;;;;3.15;55.80;96778.63;5042356;28;20207;-56
2022/03/11 01:16:13;;;;;;;8.13;6.43;;;;;;;3.10;55.28;96778.03;5041873;28;20200;-53
2022/03/11 01:18:39;;;;;;;8.13;6.73;;;;;;;3.07;56.14;96779.09;5043204;28;20213;-55
2022/03/11 01:21:06;;;;;;;8.83;7.30;;;;;;;3.10;55.60;96778.03;5043016;28;20202;-54
2022/03/11 01:23:34;;;;;;;8.20;6.83;;;;;;;3.08;55.57;96779.94;5041511;28;20234;-53
2022/03/11 01:26:01;;;;;;;8.23;7.00;;;;;;;3.11;55.44;96779.72;5042156;28;20295;-55
2022/03/11 01:28:28;;;;;;;8.67;6.90;;;;;;;3.07;55.37;96775.63;5041885;28;20528;-54
2022/03/11 01:30:54;;;;;;;8.47;6.90;;;;;;;3.03;55.68;96776.75;5041723;28;20610;-54
2022/03/11 01:33:21;;;;;;;7.97;6.70;;;;;;;3.00;55.91;96780.38;5041720;28;20198;-55
2022/03/11 01:35:48;;;;;;;7.37;6.47;;;;;;;2.98;55.99;96775.25;5041831;28;20208;-55
2022/03/11 01:38:17;;;;;;;8.40;7.20;;;;;;;2.96;55.67;96771.91;5040232;28;20202;-53
2022/03/11 01:40:44;;;;;;;8.17;7.03;;;;;;;2.95;55.81;96765.00;5041906;28;20216;-53
2022/03/11 01:43:16;;;;;;;8.90;6.63;;;;;;;2.94;56.55;96773.75;5040996;28;20660;-54
2022/03/11 01:45:42;;;;;;;9.03;6.53;;;;;;;2.92;55.72;96773.00;5041706;28;21420;-55
2022/03/11 01:48:12;;;;;;;7.67;6.93;;;;;;;2.91;56.22;96773.09;5041813;28;20257;-55
2022/03/11 01:50:40;;;;;;;8.73;7.30;;;;;;;2.86;56.44;96760.34;5041860;28;20206;-53
2022/03/11 01:53:07;;;;;;;8.27;6.50;;;;;;;2.84;56.63;96769.19;5042662;28;20239;-53
2022/03/11 01:55:34;;;;;;;7.57;6.77;;;;;;;2.81;56.43;96771.97;5042480;28;20210;-57
2022/03/11 01:58:01;;;;;;;8.93;7.43;;;;;;;2.77;56.79;96776.53;5041635;28;20240;-55
2022/03/11 02:00:29;;;;;;;9.97;7.47;;;;;;;2.76;56.76;96774.88;5041995;28;20186;-55
2022/03/11 02:02:55;;;;;;;9.40;7.17;;;;;;;2.71;57.22;96776.94;5041557;28;20222;-55
2022/03/11 02:05:21;;;;;;;9.00;6.90;;;;;;;2.67;57.75;96780.66;5042137;28;20213;-55
2022/03/11 02:07:49;;;;;;;8.83;6.83;;;;;;;2.64;57.49;96780.84;5042197;28;20301;-55
2022/03/11 02:10:15;;;;;;;9.20;7.07;;;;;;;2.60;58.10;96776.72;5042899;28;20206;-53
2022/03/11 02:12:42;;;;;;;9.33;7.33;;;;;;;2.54;58.21;96784.91;5043485;28;20209;-54
2022/03/11 02:15:09;;;;;;;7.60;6.80;;;;;;;2.57;57.94;96778.69;5042731;28;20195;-54
2022/03/11 02:17:38;;;;;;;8.33;7.37;;;;;;;2.55;57.74;96778.75;5041060;28;20623;-55
2022/03/11 02:20:06;;;;;;;9.37;7.33;;;;;;;2.58;57.54;96781.22;5042618;28;20285;-54
2022/03/11 02:22:35;;;;;;;8.33;6.83;;;;;;;2.52;58.36;96781.53;5040660;28;20336;-54
2022/03/11 02:25:06;;;;;;;7.67;6.57;;;;;;;2.55;57.49;96778.75;5042354;28;20297;-54
2022/03/11 02:27:35;;;;;;;9.13;7.07;;;;;;;2.51;57.70;96767.66;5042196;28;20198;-55
2022/03/11 02:30:02;;;;;;;8.70;7.37;;;;;;;2.46;57.98;96769.72;5041866;28;20222;-55
2022/03/11 02:32:28;;;;;;;7.77;6.97;;;;;;;2.44;58.77;96771.56;5041893;28;20231;-55
2022/03/11 02:34:55;;;;;;;8.97;7.23;;;;;;;2.43;57.89;96776.88;5041615;28;20230;-53
2022/03/11 02:37:21;;;;;;;9.13;7.03;;;;;;;2.43;57.67;96766.44;5040844;28;20210;-54
2022/03/11 02:39:50;;;;;;;9.73;7.13;;;;;;;2.41;57.68;96763.06;5040782;28;20203;-53
2022/03/11 02:42:17;;;;;;;8.40;7.23;;;;;;;2.42;58.11;96767.38;5044588;28;20199;-55
2022/03/11 02:44:44;;;;;;;7.80;6.87;;;;;;;2.40;57.69;96759.66;5044846;28;20234;-52
2022/03/11 02:47:11;;;;;;;8.37;6.87;;;;;;;2.41;57.72;96765.69;5044480;28;20655;-52
2022/03/11 02:49:39;;;;;;;8.67;6.90;;;;;;;2.40;57.60;96769.25;5044967;28;20685;-52
2022/03/11 02:52:05;;;;;;;8.63;7.43;;;;;;;2.37;57.62;96761.59;5045218;28;20215;-52
2022/03/11 02:54:32;;;;;;;9.67;7.60;;;;;;;2.35;58.29;96758.22;5044865;28;20202;-52
2022/03/11 02:56:59;;;;;;;9.17;7.43;;;;;;;2.32;58.14;96763.63;5044711;28;20607;-54
2022/03/11 02:59:26;;;;;;;8.63;7.20;;;;;;;2.32;58.33;96774.06;5044022;28;20253;-54
2022/03/11 03:01:53;;;;;;;9.20;7.70;;;;;;;2.35;57.67;96760.81;5045666;28;20233;-53
2022/03/11 03:04:20;;;;;;;12.07;7.40;;;;;;;2.30;57.82;96763.69;5052351;28;20222;-53
2022/03/11 03:06:46;;;;;;;8.97;7.60;;;;;;;2.30;58.32;96762.88;5053678;28;20206;-53
2022/03/11 03:09:14;;;;;;;9.00;7.10;;;;;;;2.24;58.17;96765.81;5050621;28;20575;-52
2022/03/11 03:11:40;;;;;;;8.63;7.03;;;;;;;2.26;58.16;96764.00;5049081;28;20206;-52
2022/03/11 03:14:07;;;;;;;8.70;7.20;;;;;;;2.23;58.62;96758.97;5059244;28;20198;-53
2022/03/11 03:16:35;;;;;;;7.27;6.57;;;;;;;2.21;58.38;96763.41;5056822;28;20327;-52
2022/03/11 03:19:02;;;;;;;7.30;6.53;;;;;;;2.16;58.68;96768.06;5050783;28;20207;-51
2022/03/11 03:21:28;;;;;;;7.73;6.93;;;;;;;2.17;58.26;96760.13;5055545;28;20217;-54
2022/03/11 03:23:55;;;;;;;7.70;6.70;;;;;;;2.17;58.35;96765.34;5061203;28;20223;-52
2022/03/11 03:26:21;;;;;;;8.13;7.23;;;;;;;2.16;58.05;96762.84;5062529;28;20207;-52
2022/03/11 03:28:48;;;;;;;9.23;7.20;;;;;;;2.13;58.85;96760.38;5058281;28;20270;-52
2022/03/11 03:31:17;;;;;;;8.63;7.23;;;;;;;2.12;58.63;96761.34;5052089;28;20217;-52
2022/03/11 03:33:44;;;;;;;8.37;6.70;;;;;;;2.00;59.52;96763.72;5047774;28;20199;-52
2022/03/11 03:36:11;;;;;;;8.13;6.90;;;;;;;1.97;59.30;96756.09;5049692;28;20201;-53
2022/03/11 03:38:38;;;;;;;7.60;6.80;;;;;;;2.01;59.35;96759.34;5050554;28;20205;-51
2022/03/11 03:41:05;;;;;;;8.00;6.43;;;;;;;2.02;59.46;96768.84;5048987;28;20202;-54
2022/03/11 03:43:31;;;;;;;8.73;7.17;;;;;;;2.03;59.44;96767.06;5045341;28;20222;-52
2022/03/11 03:45:58;;;;;;;11.13;7.17;;;;;;;1.98;59.18;96765.56;5042805;28;20537;-51
2022/03/11 03:48:25;;;;;;;8.20;6.83;;;;;;;1.96;59.49;96761.38;5042779;28;20218;-52
2022/03/11 03:50:53;;;;;;;7.40;6.60;;;;;;;1.99;59.49;96762.03;5044307;28;20245;-52
2022/03/11 03:53:20;;;;;;;8.23;6.97;;;;;;;2.04;58.69;96766.16;5044084;28;20194;-51
2022/03/11 03:55:47;;;;;;;8.13;7.13;;;;;;;2.01;58.34;96764.56;5044257;28;20210;-53
2022/03/11 03:58:13;;;;;;;8.00;7.20;;;;;;;2.01;59.22;96761.97;5044095;28;20256;-53
2022/03/11 04:00:40;;;;;;;10.10;6.87;;;;;;;1.97;59.64;96758.69;5044333;28;20214;-52
2022/03/11 04:03:06;;;;;;;8.20;6.90;;;;;;;1.96;59.66;96754.41;5043987;28;20588;-53
2022/03/11 04:05:33;;;;;;;7.37;6.37;;;;;;;1.92;59.74;96760.72;5043762;28;20513;-52
2022/03/11 04:08:00;;;;;;;7.90;6.73;;;;;;;1.88;60.28;96766.19;5044057;28;20197;-53
2022/03/11 04:10:27;;;;;;;8.20;6.93;;;;;;;1.92;59.39;96760.72;5044462;28;20202;-53
2022/03/11 04:12:55;;;;;;;8.77;6.77;;;;;;;1.89;59.53;96766.09;5047750;28;20452;-56
2022/03/11 04:15:23;;;;;;;9.67;7.03;;;;;;;1.86;59.65;96768.03;5046260;28;20209;-56
2022/03/11 04:17:49;;;;;;;9.80;7.07;;;;;;;1.83;60.51;96763.84;5045033;28;20198;-54
2022/03/11 04:20:17;;;;;;;7.30;6.47;;;;;;;1.85;59.89;96768.97;5046044;28;20221;-56
2022/03/11 04:22:46;;;;;;;8.43;7.23;;;;;;;1.78;59.58;96767.63;5046686;28;20284;-59
2022/03/11 04:25:14;;;;;;;7.17;6.47;;;;;;;1.73;60.45;96764.47;5043312;28;20229;-55
2022/03/11 04:27:41;;;;;;;9.33;7.47;;;;;;;1.69;60.52;96769.00;5043807;28;20203;-55
2022/03/11 04:30:09;;;;;;;7.23;6.47;;;;;;;1.68;60.54;96772.53;5042985;28;20664;-56
2022/03/11 04:32:35;;;;;;;8.50;6.93;;;;;;;1.69;60.75;96762.94;5044389;28;20203;-56
2022/03/11 04:35:03;;;;;;;8.97;7.63;;;;;;;1.62;61.00;96762.47;5053362;28;20495;-55
2022/03/11 04:37:31;;;;;;;6.97;6.27;;;;;;;1.61;60.66;96765.13;5054792;28;20260;-54
2022/03/11 04:39:58;;;;;;;7.43;6.57;;;;;;;1.59;60.71;96762.63;5053880;28;20233;-54
2022/03/11 04:42:29;;;;;;;8.73;7.27;;;;;;;1.64;60.22;96764.97;5042699;28;20646;-56
2022/03/11 04:44:55;;;;;;;10.03;7.27;;;;;;;1.61;60.24;96765.13;5050233;28;20301;-55
2022/03/11 04:47:22;;;;;;;8.10;6.70;;;;;;;1.57;60.61;96766.22;5055885;28;20220;-55
2022/03/11 04:49:49;;;;;;;8.43;7.10;;;;;;;1.56;61.49;96781.03;5055592;28;20521;-55
2022/03/11 04:52:15;;;;;;;9.33;7.40;;;;;;;1.51;61.17;96780.44;5055684;28;20221;-56
2022/03/11 04:54:44;;;;;;;9.70;7.07;;;;;;;1.49;60.39;96777.06;5055841;28;20213;-54
2022/03/11 04:57:10;;;;;;;8.17;7.10;;;;;;;1.49;61.19;96769.25;5055640;28;20219;-54
2022/03/11 04:59:38;;;;;;;9.63;7.27;;;;;;;1.44;61.84;96776.50;5055042;28;20231;-54
2022/03/11 05:02:06;;;;;;;9.00;6.73;;;;;;;1.44;61.69;96772.13;5055408;28;20213;-54
2022/03/11 05:04:34;;;;;;;7.47;6.57;;;;;;;1.47;61.35;96768.50;5055450;28;20622;-54
2022/03/11 05:07:05;;;;;;;8.67;6.77;;;;;;;1.41;61.08;96769.69;5056632;28;20204;-54
2022/03/11 05:09:32;;;;;;;7.30;6.47;;;;;;;1.36;61.61;96774.31;5058048;28;20391;-55
2022/03/11 05:11:59;;;;;;;9.40;6.67;;;;;;;1.37;61.83;96772.56;5053002;28;20229;-55
2022/03/11 05:14:26;;;;;;;8.17;7.37;;;;;;;1.30;62.17;96772.06;5058323;28;20203;-54
2022/03/11 05:16:54;;;;;;;8.90;6.70;;;;;;;1.29;62.18;96764.31;5058928;28;20200;-55
2022/03/11 05:19:24;;;;;;;7.73;6.93;;;;;;;1.24;62.52;96771.56;5057947;28;20206;-54
2022/03/11 05:21:51;;;;;;;7.60;6.77;;;;;;;1.20;63.70;96775.25;5059245;28;20220;-55
2022/03/11 05:24:17;;;;;;;7.57;6.77;;;;;;;1.22;62.31;96773.38;5067118;28;20307;-54
2022/03/11 05:26:45;;;;;;;9.07;7.03;;;;;;;1.17;63.22;96778.00;5074470;28;20211;-55
2022/03/11 05:29:12;;;;;;;8.83;7.20;;;;;;;1.13;62.46;96769.53;5056611;28;20216;-57
2022/03/11 05:31:38;;;;;;;8.63;6.30;;;;;;;1.17;62.75;96765.00;5063821;28;20204;-55
2022/03/11 05:34:07;;;;;;;8.67;6.93;;;;;;;1.12;62.87;96777.41;5072162;28;20531;-54
2022/03/11 05:36:36;;;;;;;9.10;7.27;;;;;;;1.11;62.81;96780.94;5067521;28;20216;-54
2022/03/11 05:39:03;;;;;;;8.00;6.93;;;;;;;1.11;62.84;96775.72;5063347;28;20209;-55
2022/03/11 05:41:29;;;;;;;9.80;7.03;;;;;;;1.13;62.45;96779.09;5072667;28;20205;-54
2022/03/11 05:43:56;;;;;;;11.47;7.57;;;;;;;1.07;63.68;96776.81;5072410;28;20231;-56
2022/03/11 05:46:24;;;;;;;7.90;6.87;;;;;;;1.15;62.93;96785.06;5071658;28;20216;-55
2022/03/11 05:48:50;;;;;;;8.03;7.07;;;;;;;1.16;62.36;96784.13;5072535;28;20230;-55
2022/03/11 05:51:18;;;;;;;7.70;6.90;;;;;;;1.21;62.41;96784.72;5073469;28;20210;-55
2022/03/11 05:53:44;;;;;;;10.17;7.23;;;;;;;1.23;62.99;96782.88;5070944;28;20198;-55
2022/03/11 05:56:13;;;;;;;9.90;7.67;;;;;;;1.23;62.70;96788.09;5062807;28;20219;-55
2022/03/11 05:58:40;;;;;;;8.57;7.27;;;;;;;1.26;62.88;96786.16;5068696;28;20324;-54
2022/03/11 06:01:07;;;;;;;8.87;6.87;;;;;;;1.29;62.86;96790.34;5065881;28;20211;-56
2022/03/11 06:03:34;;;;;;;9.37;6.87;;;;;;;1.30;64.20;96792.91;5062869;28;20225;-54
2022/03/11 06:06:00;;;;;;;9.37;7.20;;;;;;;1.35;63.14;96795.22;5055236;28;20243;-54
2022/03/11 06:08:30;;;;;;;9.60;6.77;;;;;;;1.48;62.75;96797.09;5056118;28;20205;-55
2022/03/11 06:10:57;;;;;;;10.73;6.73;;;;;;;1.66;62.61;96803.06;5071561;28;20194;-55
2022/03/11 06:13:24;;;;;;;9.10;7.23;;;;;;;1.91;61.74;96795.53;5056162;28;20553;-54
2022/03/11 06:15:51;;;;;;;8.43;7.23;;;;;;;2.38;59.54;96799.78;5057981;28;20229;-55
2022/03/11 06:18:18;;;;;;;9.77;7.77;;;;;;;2.84;59.00;96803.97;5058874;28;20213;-55
2022/03/11 06:20:45;;;;;;;10.90;6.87;;;;;;;3.82;56.92;96799.59;5057281;28;20229;-54
2022/03/11 06:23:11;;;;;;;9.10;7.97;;;;;;;4.55;53.59;96800.00;5049687;28;20214;-55
2022/03/11 06:25:39;;;;;;;7.23;6.53;;;;;;;4.84;53.04;96798.88;5066099;28;20237;-54
2022/03/11 06:28:06;;;;;;;8.03;7.07;;;;;;;4.87;52.47;96796.06;5065142;28;20587;-54
2022/03/11 06:30:32;;;;;;;8.50;7.53;;;;;;;4.70;52.57;96798.97;5071761;28;20207;-55
2022/03/11 06:32:59;;;;;;;8.83;7.23;;;;;;;4.31;54.63;96796.41;5066314;28;20642;-55
2022/03/11 06:35:25;;;;;;;7.80;7.00;;;;;;;4.23;55.65;96790.81;5066732;28;20229;-55
2022/03/11 06:37:52;;;;;;;12.33;7.60;;;;;;;4.05;55.06;96784.16;5074016;28;20206;-55
2022/03/11 06:40:20;;;;;;;10.03;7.27;;;;;;;4.34;54.41;96780.47;5076935;28;20215;-54
2022/03/11 06:42:49;;;;;;;13.20;7.67;;;;;;;4.31;54.49;96784.16;5076104;28;20225;-55
2022/03/11 06:45:17;;;;;;;8.30;7.50;;;;;;;4.23;55.74;96785.59;5057854;28;20223;-55
2022/03/11 06:47:46;;;;;;;8.20;7.07;;;;;;;4.44;55.10;96786.78;5058850;28;20233;-55
2022/03/11 06:50:13;;;;;;;10.13;7.83;;;;;;;4.15;56.67;96788.69;5058839;28;20207;-55
2022/03/11 06:52:39;;;;;;;9.33;7.53;;;;;;;4.77;55.51;96792.38;5063413;28;20214;-55
2022/03/11 06:55:07;;;;;;;10.00;7.83;;;;;;;5.55;52.66;96797.44;5064991;28;20214;-56
2022/03/11 06:57:34;;;;;;;11.27;7.83;;;;;;;5.69;53.34;96790.28;5052533;28;20298;-56
2022/03/11 07:00:02;;;;;;;9.40;7.63;;;;;;;5.75;50.68;96792.44;5066003;28;20215;-53
2022/03/11 07:02:30;;;;;;;13.27;8.50;;;;;;;5.59;49.58;96793.66;5063672;28;20207;-55
2022/03/11 07:04:58;;;;;;;9.33;8.30;;;;;;;5.59;50.21;96793.66;5065210;28;20427;-56
2022/03/11 07:07:28;;;;;;;14.10;8.90;;;;;;;5.41;50.62;96796.66;5069591;28;20313;-56
2022/03/11 07:09:57;;;;;;;12.30;9.07;;;;;;;5.28;50.02;96800.22;5064769;28;20277;-56
2022/03/11 07:12:29;;;;;;;10.77;8.60;;;;;;;5.21;51.06;96801.59;5062824;28;20211;-55
2022/03/11 07:14:55;;;;;;;11.80;8.57;;;;;;;5.26;51.33;96796.88;5067431;28;20257;-55
2022/03/11 07:17:26;;;;;;;10.67;8.93;;;;;;;5.17;51.64;96794.91;5062576;28;20207;-56
2022/03/11 07:19:55;;;;;;;14.83;8.87;;;;;;;5.16;52.16;96798.44;5061321;28;20191;-55
2022/03/11 07:22:21;;;;;;;12.70;8.87;;;;;;;5.25;51.90;96795.19;5058189;28;20222;-55
2022/03/11 07:24:48;;;;;;;15.30;9.70;;;;;;;5.28;52.12;96795.00;5049310;28;20232;-56
2022/03/11 07:27:15;;;;;;;11.97;9.13;;;;;;;5.36;52.53;96795.28;5053299;28;20211;-56
2022/03/11 07:29:42;;;;;;;14.03;9.17;;;;;;;5.42;51.51;96787.81;5058488;28;20297;-54
2022/03/11 07:32:10;;;;;;;13.17;9.27;;;;;;;5.43;51.58;96778.16;5058563;28;20218;-55
2022/03/11 07:34:39;;;;;;;14.63;9.23;;;;;;;5.41;51.89;96772.19;5058641;28;20419;-55
2022/03/11 07:37:08;;;;;;;11.30;9.07;;;;;;;5.44;51.37;96769.34;5058607;28;20244;-55
2022/03/11 07:39:36;;;;;;;14.77;9.73;;;;;;;5.59;51.80;96775.31;5058999;28;20210;-55
2022/03/11 07:42:06;;;;;;;13.03;9.60;;;;;;;5.68;51.24;96775.47;5059023;28;20223;-55
2022/03/11 07:44:33;;;;;;;12.53;9.07;;;;;;;5.65;50.55;96772.22;5059723;28;20549;-54
2022/03/11 07:47:00;;;;;;;12.90;9.60;;;;;;;5.73;50.84;96770.75;5060523;28;20274;-56
2022/03/11 07:49:27;;;;;;;12.47;9.30;;;;;;;5.90;50.90;96773.03;5061518;28;20548;-56
2022/03/11 07:51:56;;;;;;;13.53;9.70;;;;;;;5.92;50.88;96776.34;5066693;28;20284;-55
2022/03/11 07:54:23;;;;;;;11.53;9.33;;;;;;;5.85;50.35;96782.13;5058577;28;20215;-56
2022/03/11 07:56:50;;;;;;;13.17;9.57;;;;;;;6.01;50.60;96780.09;5056334;28;20233;-55
2022/03/11 07:59:17;;;;;;;15.27;10.03;;;;;;;6.02;50.38;96776.53;5055491;28;20238;-55
2022/03/11 08:01:46;;;;;;;13.60;9.73;;;;;;;6.16;51.07;96778.16;5056366;28;20211;-55
2022/03/11 08:04:13;;;;;;;12.77;9.50;;;;;;;6.20;51.32;96783.03;5056392;28;20222;-55
2022/03/11 08:06:40;;;;;;;12.13;9.60;;;;;;;6.08;50.33;96777.88;5057180;28;20214;-55
2022/03/11 08:09:08;;;;;;;13.40;9.70;;;;;;;6.09;51.26;96782.19;5056379;28;20222;-55
2022/03/11 08:11:37;;;;;;;15.77;10.23;;;;;;;6.10;50.42;96784.69;5056657;28;20207;-55
2022/03/11 08:14:03;;;;;;;15.07;10.13;;;;;;;6.22;50.72;96780.31;5057148;28;20207;-55
2022/03/11 08:16:31;;;;;;;12.17;9.97;;;;;;;6.18;51.42;96776.25;5061168;28;20207;-55
2022/03/11 08:19:06;;;;;;;17.73;10.93;;;;;;;6.03;50.01;96777.34;5078101;28;20199;-55
2022/03/11 08:21:33;;;;;;;14.20;11.07;;;;;;;6.18;50.68;96778.88;5069072;28;20203;-55
2022/03/11 08:24:01;;;;;;;12.17;10.50;;;;;;;6.08;51.19;96770.00;5054277;28;20203;-55
2022/03/11 08:26:29;;;;;;;13.37;10.77;;;;;;;6.11;50.07;96775.84;5046886;28;20266;-55
2022/03/11 08:28:57;;;;;;;13.23;9.63;;;;;;;6.18;50.21;96773.63;5053003;28;20308;-55
2022/03/11 08:31:25;;;;;;;13.43;10.10;;;;;;;6.27;49.87;96770.31;5055818;28;20235;-55
2022/03/11 08:33:55;;;;;;;14.00;10.27;;;;;;;6.37;49.73;96766.91;5056263;28;20216;-54
2022/03/11 08:36:22;;;;;;;14.37;10.37;;;;;;;6.47;49.81;96772.31;5056466;28;20250;-55
2022/03/11 08:38:50;;;;;;;16.47;10.57;;;;;;;6.46;48.90;96765.38;5055300;28;20221;-55
2022/03/11 08:41:19;;;;;;;13.07;10.00;;;;;;;6.47;48.85;96764.41;5055844;28;20211;-54
2022/03/11 08:43:49;;;;;;;17.13;11.10;;;;;;;6.47;48.40;96764.41;5042815;28;20260;-55
2022/03/11 08:46:16;;;;;;;14.63;10.33;;;;;;;6.59;48.15;96762.66;5055535;28;20227;-56
2022/03/11 08:48:45;;;;;;;12.47;10.17;;;;;;;6.61;48.36;96771.25;5056189;28;20207;-56
2022/03/11 08:51:12;;;;;;;12.50;10.43;;;;;;;6.50;47.89;96772.06;5055844;28;20207;-54
2022/03/11 08:53:41;;;;;;;15.23;10.27;;;;;;;6.65;48.15;96767.44;5055877;28;20207;-55
2022/03/11 08:56:08;;;;;;;14.57;10.10;;;;;;;6.78;48.68;96755.88;5055872;28;20203;-55
2022/03/11 08:58:35;;;;;;;15.47;10.40;;;;;;;6.80;47.55;96753.97;5055726;28;20250;-54
2022/03/11 09:01:02;;;;;;;15.37;10.60;;;;;;;6.91;47.65;96753.97;5057248;28;20207;-55
2022/03/11 09:03:29;;;;;;;12.63;9.90;;;;;;;7.03;47.41;96744.31;5046241;28;20581;-55
2022/03/11 09:05:56;;;;;;;14.47;10.27;;;;;;;7.12;48.01;96748.03;5058157;28;20227;-55
2022/03/11 09:08:23;;;;;;;16.27;10.40;;;;;;;7.23;46.97;96750.66;5055380;28;20214;-55
2022/03/11 09:10:50;;;;;;;13.27;10.20;;;;;;;7.20;45.96;96750.88;5055421;28;20635;-55
2022/03/11 09:13:17;;;;;;;13.80;10.37;;;;;;;7.34;45.79;96742.75;5056103;28;20207;-55
2022/03/11 09:15:43;;;;;;;11.30;9.87;;;;;;;7.41;45.73;96739.53;5055236;28;20623;-55
2022/03/11 09:18:12;;;;;;;12.47;10.60;;;;;;;7.64;45.36;96742.13;5055839;28;20214;-56
2022/03/11 09:20:39;;;;;;;17.60;10.67;;;;;;;8.15;45.28;96737.91;5055402;28;20594;-54
2022/03/11 09:23:06;;;;;;;13.97;10.03;;;;;;;8.63;44.20;96743.59;5055123;28;20207;-54
2022/03/11 09:25:33;;;;;;;13.93;10.80;;;;;;;9.04;43.26;96739.22;5054828;28;20736;-55
2022/03/11 09:27:59;;;;;;;14.90;10.40;;;;;;;9.45;43.20;96739.16;5055350;28;20206;-56
2022/03/11 09:30:27;;;;;;;14.67;10.43;;;;;;;9.63;40.71;96737.53;5053348;28;20237;-55
2022/03/11 09:32:53;;;;;;;12.27;9.93;;;;;;;9.98;41.17;96743.16;5065078;28;20195;-56
2022/03/11 09:35:21;;;;;;;17.23;11.13;;;;;;;10.28;40.50;96738.75;5076256;28;20199;-56
2022/03/11 09:37:48;;;;;;;17.07;11.20;;;;;;;10.31;40.07;96738.47;5075078;28;20187;-56
2022/03/11 09:40:16;;;;;;;11.37;9.80;;;;;;;10.94;40.10;96727.28;5042344;28;20210;-55
2022/03/11 09:42:43;;;;;;;12.53;10.13;;;;;;;11.04;39.53;96731.72;5055713;28;20337;-56
2022/03/11 09:45:11;;;;;;;16.10;11.10;;;;;;;11.30;39.23;96722.16;5055279;28;20325;-56
2022/03/11 09:47:38;;;;;;;15.13;10.23;;;;;;;11.54;38.61;96730.41;5054972;28;20211;-56
2022/03/11 09:50:06;;;;;;;13.70;9.83;;;;;;;11.87;37.53;96711.28;5054820;28;20203;-55
2022/03/11 09:52:35;;;;;;;14.50;10.80;;;;;;;11.94;37.57;96720.28;5054167;28;20222;-55
2022/03/11 09:55:01;;;;;;;13.10;10.67;;;;;;;11.94;37.20;96711.50;5054404;28;20207;-55
2022/03/11 09:57:29;;;;;;;12.57;10.23;;;;;;;12.30;37.67;96712.38;5054523;28;20203;-56
2022/03/11 10:00:00;;;;;;;12.37;10.97;;;;;;;12.48;37.37;96710.53;5055177;28;20245;-55
2022/03/11 10:02:27;;;;;;;13.13;11.13;;;;;;;12.65;36.97;96712.34;5053842;28;20319;-56
2022/03/11 10:04:56;;;;;;;14.87;10.70;;;;;;;12.93;37.22;96697.94;5054354;28;20206;-56
2022/03/11 10:07:26;;;;;;;12.47;10.93;;;;;;;13.74;36.34;96698.41;5054368;28;20210;-55
2022/03/11 10:09:54;;;;;;;11.60;10.40;;;;;;;13.75;35.45;96697.38;5054883;28;20211;-55
2022/03/11 10:12:22;;;;;;;12.60;11.20;;;;;;;13.35;35.56;96695.41;5055086;28;20203;-57
2022/03/11 10:14:55;;;;;;;13.30;11.00;;;;;;;13.29;34.75;96692.53;5054819;28;20235;-55
2022/03/11 10:17:23;;;;;;;12.83;11.30;;;;;;;13.72;35.60;96695.03;5054552;28;20202;-55
2022/03/11 10:20:02;;;;;;;12.80;11.40;;;;;;;14.15;36.77;96687.84;5054672;28;20206;-56
2022/03/11 10:22:29;;;;;;;13.30;11.43;;;;;;;14.49;35.71;96688.56;5054744;28;20561;-55
2022/03/11 10:25:01;;;;;;;13.10;11.27;;;;;;;14.13;34.93;96679.22;5054655;28;20207;-56
2022/03/11 10:27:28;;;;;;;16.77;11.90;;;;;;;14.13;34.07;96679.22;5054547;28;20207;-55
2022/03/11 10:30:03;;;;;;;13.53;11.20;;;;;;;14.23;34.24;96682.53;5056334;28;20234;-56
2022/03/11 10:32:30;;;;;;;12.90;11.17;;;;;;;14.28;35.18;96682.84;5056007;28;20231;-54
2022/03/11 10:35:09;;;;;;;14.83;11.80;;;;;;;14.58;34.80;96674.28;5055334;28;20210;-54
2022/03/11 10:37:35;;;;;;;12.97;11.50;;;;;;;14.89;33.53;96677.06;5042777;28;20191;-55
2022/03/11 10:40:13;;;;;;;14.53;11.80;;;;;;;15.37;33.35;96670.78;5054418;28;20329;-55
2022/03/11 10:42:42;;;;;;;13.07;11.77;;;;;;;15.48;32.81;96683.72;5054444;28;20199;-54
2022/03/11 10:45:09;;;;;;;16.00;11.73;;;;;;;15.11;32.04;96681.69;5053831;28;20203;-55
2022/03/11 10:47:38;;;;;;;14.50;12.30;;;;;;;14.85;32.29;96676.56;5063056;28;20219;-55
2022/03/11 10:50:07;;;;;;;13.05;11.68;;;;;;;14.85;34.01;96676.56;5071127;28;20211;-55
2022/03/11 10:52:35;;;;;;;15.23;11.98;;;;;;;14.74;32.28;96679.56;5063465;28;20218;-55
2022/03/11 10:55:18;;;;;;;14.20;12.70;;;;;;;14.87;33.81;96673.75;5054627;28;20550;-55
2022/03/11 10:57:47;;;;;;;15.93;12.63;;;;;;;15.18;33.14;96668.50;5056349;28;20203;-55
2022/03/11 11:00:19;;;;;;;14.70;12.63;;;;;;;15.31;33.92;96666.97;5045719;28;20253;-55
2022/03/11 11:02:47;;;;;;;13.20;11.73;;;;;;;15.74;32.43;96656.81;5063380;28;20290;-55
2022/03/11 11:05:14;;;;;;;16.38;13.13;;;;;;;15.94;31.43;96656.19;5055203;28;20233;-55
2022/03/11 11:07:41;;;;;;;16.73;12.10;;;;;;;15.87;29.98;96652.56;5058721;28;20211;-54
2022/03/11 11:10:08;;;;;;;14.50;12.50;;;;;;;15.67;31.54;96645.19;5065697;28;20536;-55
2022/03/11 11:12:37;;;;;;;12.90;11.60;;;;;;;16.08;30.03;96635.97;5071920;28;20218;-55
2022/03/11 11:15:03;;;;;;;12.68;11.32;;;;;;;16.20;30.66;96636.38;5060681;28;20207;-55
2022/03/11 11:17:31;;;;;;;14.15;11.95;;;;;;;16.42;31.34;96638.19;5060600;28;20265;-55
2022/03/11 11:20:00;;;;;;;14.27;12.63;;;;;;;17.01;29.96;96627.66;5060529;28;20214;-55
2022/03/11 11:22:27;;;;;;;14.07;12.02;;;;;;;16.89;29.51;96630.81;5057536;28;20588;-55
2022/03/11 11:24:55;;;;;;;13.82;12.43;;;;;;;17.00;29.33;96624.19;5057954;28;20212;-55
2022/03/11 11:27:22;;;;;;;15.68;12.70;;;;;;;17.49;30.24;96619.09;5057724;28;20583;-54
2022/03/11 11:29:50;;;;;;;14.93;12.65;;;;;;;17.55;28.39;96612.16;5058166;28;20292;-55
2022/03/11 11:32:18;;;;;;;15.77;13.23;;;;;;;17.10;28.44;96610.53;5075845;28;20211;-55
2022/03/11 11:34:46;;;;;;;14.52;12.30;;;;;;;17.31;29.19;96607.94;5065840;28;20212;-56